Rechercher aéroport 
image banner adimage banner adimage banner ad
image banner ad

9CL2 - Christensen Ranch

Situé à Hollister, United States

ICAO - 9CL2, IATA -

Données fournies par Airmate  

Information générale

Coordonnées: N36°52'18" W121°20'14"
Élévation : 380 feet MSL.
Variation magnétique : 15° East
Voir autres Aéroports à California

Données opérationnelles

Special qualification required
Heure actuelle UTC:
Heure actuelle locale:
Météo à : KCVH - Hollister Muni ( 7 km )
METAR: KCVH 251535Z AUTO 00000KT 8SM OVC008 14/12 A3000 RMK A01
Voir NOTAMs / SUP AIP / TFR affectant cet aéroport [VIEW]
Fréquences de communication: [VIEW]

Pistes:

Identifiant RWYQFULongueur (ft)Largeur (ft)SurfaceLDA (ft)
07300050ASPH
25300050ASPH

Coordonnées de l'aéroport

Adresse: Hollister United States

Vue satellite de 9CL2